createdAt,value
2017-12-31T00:00:33.196Z,12.3
2017-12-31T00:01:34.901Z,12.3
2017-12-31T00:02:36.390Z,12.3
2017-12-31T00:03:38.073Z,12.4
2017-12-31T00:04:39.777Z,12.4
2017-12-31T00:05:41.530Z,12.4
2017-12-31T00:06:43.257Z,12.4
2017-12-31T00:07:45.017Z,12.5
2017-12-31T00:08:46.844Z,12.4
2017-12-31T00:09:48.557Z,12.5
2017-12-31T00:10:50.265Z,12.5
2017-12-31T00:11:51.765Z,12.4
2017-12-31T00:12:53.445Z,12.5
2017-12-31T00:13:55.199Z,12.5
2017-12-31T00:14:56.957Z,12.4
2017-12-31T00:15:58.665Z,12.4
2017-12-31T00:17:00.412Z,12.4
2017-12-31T00:18:02.221Z,12.4
2017-12-31T00:19:03.947Z,12.5
2017-12-31T00:20:05.619Z,12.5
2017-12-31T00:21:07.056Z,12.5
2017-12-31T00:22:08.650Z,12.5
2017-12-31T00:23:10.167Z,12.5
2017-12-31T00:24:11.660Z,12.5
2017-12-31T00:25:13.349Z,12.5
2017-12-31T00:26:15.107Z,12.5
2017-12-31T00:27:16.825Z,12.5
2017-12-31T00:28:18.303Z,12.5
2017-12-31T00:29:19.954Z,12.6
2017-12-31T00:30:21.660Z,12.5
2017-12-31T00:31:23.360Z,12.5
2017-12-31T00:32:25.316Z,12.4
2017-12-31T00:33:27.099Z,12.5
2017-12-31T00:34:28.754Z,12.5
2017-12-31T00:35:30.562Z,12.5
2017-12-31T00:36:32.001Z,12.6
2017-12-31T00:37:33.532Z,12.6
2017-12-31T00:38:35.823Z,12.6
2017-12-31T00:39:37.078Z,12.6
2017-12-31T00:40:38.758Z,12.6
2017-12-31T00:41:40.484Z,12.7
2017-12-31T00:42:42.499Z,12.6
2017-12-31T00:43:44.280Z,12.6
2017-12-31T00:44:45.715Z,12.6
2017-12-31T00:45:47.486Z,12.6
2017-12-31T00:46:49.393Z,12.7
2017-12-31T00:47:50.914Z,12.6
2017-12-31T00:48:52.466Z,12.7
2017-12-31T00:49:54.024Z,12.7
2017-12-31T00:50:55.670Z,12.6
2017-12-31T00:51:57.343Z,12.7
2017-12-31T00:52:59.094Z,12.6
2017-12-31T00:54:00.731Z,12.6
2017-12-31T00:55:02.513Z,12.6
2017-12-31T00:56:04.286Z,12.5
2017-12-31T00:57:05.982Z,12.5
2017-12-31T00:58:07.522Z,12.5
2017-12-31T00:59:09.254Z,12.5
2017-12-31T01:00:10.954Z,12.4
2017-12-31T01:01:12.658Z,12.4
2017-12-31T01:02:14.544Z,12.4
2017-12-31T01:03:16.257Z,12.3
2017-12-31T01:04:18.040Z,12.4
2017-12-31T01:05:19.743Z,12.3
2017-12-31T01:06:21.464Z,12.3
2017-12-31T01:07:23.133Z,12.3
2017-12-31T01:08:24.860Z,12.3
2017-12-31T01:09:26.384Z,12.3
2017-12-31T01:10:28.048Z,12.3
2017-12-31T01:11:29.875Z,12.2
2017-12-31T01:12:31.549Z,12.2
2017-12-31T01:13:33.362Z,12.3
2017-12-31T01:14:35.227Z,12.2
2017-12-31T01:15:36.940Z,12.2
2017-12-31T01:16:38.862Z,12.2
2017-12-31T01:17:40.625Z,12.3
2017-12-31T01:18:42.473Z,12.2
2017-12-31T01:19:44.424Z,12.2
2017-12-31T01:20:46.257Z,12.3
2017-12-31T01:21:48.003Z,12.2
2017-12-31T01:22:49.718Z,12.3
2017-12-31T01:23:51.416Z,12.3
2017-12-31T01:24:53.164Z,12.2
2017-12-31T01:25:54.717Z,12.3
2017-12-31T01:26:56.507Z,12.2
2017-12-31T01:27:58.335Z,12.1
2017-12-31T01:29:00.261Z,12.2
2017-12-31T01:30:01.782Z,12.1
2017-12-31T01:31:03.535Z,12.1
2017-12-31T01:32:05.334Z,12.0
2017-12-31T01:33:06.922Z,12.1
2017-12-31T01:34:08.656Z,12.1
2017-12-31T01:35:10.366Z,12.1
2017-12-31T01:36:12.093Z,12.0
2017-12-31T01:37:14.284Z,12.0
2017-12-31T01:38:16.089Z,12.0
2017-12-31T01:39:17.831Z,12.1
2017-12-31T01:40:19.671Z,12.0
2017-12-31T01:41:21.478Z,12.1
2017-12-31T01:42:23.308Z,12.0
2017-12-31T01:43:25.185Z,12.0
2017-12-31T01:44:26.863Z,11.9
2017-12-31T01:45:29.157Z,12.0
2017-12-31T01:46:30.941Z,12.0
2017-12-31T01:47:32.711Z,12.1
2017-12-31T01:48:34.552Z,12.0
2017-12-31T01:49:36.373Z,12.0
2017-12-31T01:50:38.105Z,12.0
2017-12-31T01:51:39.912Z,12.0
2017-12-31T01:52:41.628Z,12.1
2017-12-31T01:53:43.647Z,12.0
2017-12-31T01:54:45.379Z,12.0
2017-12-31T01:55:46.871Z,11.9
2017-12-31T01:56:48.405Z,11.9
2017-12-31T01:57:49.983Z,11.9
2017-12-31T01:58:51.712Z,11.9
2017-12-31T01:59:53.175Z,11.9
2017-12-31T02:00:54.936Z,11.8
2017-12-31T02:01:56.593Z,12.0
2017-12-31T02:02:58.111Z,12.0
2017-12-31T02:03:59.608Z,12.0
2017-12-31T02:05:01.072Z,12.1
2017-12-31T02:06:02.731Z,12.1
2017-12-31T02:07:04.255Z,12.1
2017-12-31T02:08:05.715Z,12.0
2017-12-31T02:09:07.201Z,12.0
2017-12-31T02:10:08.724Z,12.0
2017-12-31T02:11:10.413Z,11.9
2017-12-31T02:12:12.002Z,12.0
2017-12-31T02:13:13.719Z,11.9
2017-12-31T02:14:15.458Z,12.0
2017-12-31T02:15:17.454Z,12.0
2017-12-31T02:16:19.312Z,12.1
2017-12-31T02:17:20.930Z,12.0
2017-12-31T02:18:22.745Z,12.0
2017-12-31T02:19:24.543Z,12.1
2017-12-31T02:20:26.285Z,12.0
2017-12-31T02:21:28.163Z,12.1
2017-12-31T02:22:30.160Z,12.1
2017-12-31T02:23:31.853Z,12.0
2017-12-31T02:24:33.939Z,12.0
2017-12-31T02:25:35.868Z,12.0
2017-12-31T02:26:37.769Z,12.0
2017-12-31T02:27:39.519Z,12.0
2017-12-31T02:28:41.427Z,12.0
2017-12-31T02:29:43.149Z,12.1
2017-12-31T02:30:45.175Z,12.1
2017-12-31T02:31:46.930Z,12.1
2017-12-31T02:32:48.654Z,12.0
2017-12-31T02:33:50.662Z,12.0
2017-12-31T02:34:52.331Z,12.0
2017-12-31T02:35:54.054Z,12.0
2017-12-31T07:45:10.123Z,13.0
2017-12-31T07:46:11.563Z,13.0
2017-12-31T07:47:12.930Z,12.9
2017-12-31T07:48:14.405Z,13.0
2017-12-31T07:49:16.054Z,13.0
2017-12-31T07:50:17.550Z,13.0
2017-12-31T07:51:19.197Z,13.1
2017-12-31T07:52:20.654Z,13.0
2017-12-31T07:53:22.385Z,13.1
2017-12-31T07:54:24.154Z,13.1
2017-12-31T07:55:25.943Z,13.1
2017-12-31T07:56:27.434Z,13.2
2017-12-31T07:57:28.941Z,13.3
2017-12-31T07:58:30.589Z,13.3
2017-12-31T07:59:32.068Z,13.2
2017-12-31T08:00:33.874Z,13.2
2017-12-31T08:01:35.300Z,13.2
2017-12-31T08:02:36.795Z,13.3
2017-12-31T08:03:38.476Z,13.3
2017-12-31T08:04:39.980Z,13.3
2017-12-31T08:05:41.473Z,13.3
2017-12-31T08:06:42.961Z,13.3
2017-12-31T08:07:44.420Z,13.3
2017-12-31T08:08:46.227Z,13.3
2017-12-31T08:09:47.791Z,13.4
2017-12-31T08:10:49.518Z,13.4
2017-12-31T08:11:50.962Z,13.4
2017-12-31T08:12:52.422Z,13.4
2017-12-31T08:13:53.983Z,13.4
2017-12-31T08:14:55.454Z,13.4
2017-12-31T08:15:56.883Z,13.4
2017-12-31T08:16:58.377Z,13.6
2017-12-31T08:17:59.865Z,13.5
2017-12-31T08:19:01.348Z,13.6
2017-12-31T08:20:02.971Z,13.5
2017-12-31T08:21:04.468Z,13.5
2017-12-31T08:22:05.948Z,13.6
2017-12-31T08:23:07.407Z,13.7
2017-12-31T08:24:08.909Z,13.6
2017-12-31T08:25:10.338Z,13.7
2017-12-31T08:26:11.791Z,13.6
2017-12-31T08:27:13.219Z,13.7
2017-12-31T08:28:14.673Z,13.7
2017-12-31T08:29:16.161Z,13.7
2017-12-31T08:30:17.622Z,13.6
2017-12-31T08:31:19.111Z,13.6
2017-12-31T08:32:20.586Z,13.5
2017-12-31T08:33:22.053Z,13.5
2017-12-31T08:34:23.534Z,13.5
2017-12-31T08:35:24.981Z,13.5
2017-12-31T08:36:26.431Z,13.5
2017-12-31T08:37:27.880Z,13.3
2017-12-31T08:38:29.357Z,13.4
2017-12-31T08:39:30.855Z,13.4
2017-12-31T08:40:32.292Z,13.3
2017-12-31T08:41:34.317Z,13.4
2017-12-31T08:42:35.772Z,13.3
2017-12-31T08:43:38.509Z,13.3
2017-12-31T08:44:40.009Z,13.3
2017-12-31T08:45:41.819Z,13.3
2017-12-31T08:46:43.269Z,13.3
2017-12-31T08:47:44.676Z,13.3
2017-12-31T08:48:46.137Z,13.4
2017-12-31T08:49:47.663Z,13.5
2017-12-31T08:50:49.150Z,13.4
2017-12-31T08:51:50.598Z,13.4
2017-12-31T08:52:52.073Z,13.5
2017-12-31T08:53:53.583Z,13.4
2017-12-31T08:54:55.102Z,13.5
2017-12-31T08:55:56.560Z,13.4
2017-12-31T08:56:58.007Z,13.4
2017-12-31T08:57:59.579Z,13.5
2017-12-31T08:59:01.008Z,13.4
2017-12-31T09:00:02.446Z,13.6
2017-12-31T09:01:03.943Z,13.5
2017-12-31T09:02:05.402Z,13.5
2017-12-31T09:03:06.898Z,13.6
2017-12-31T09:04:08.348Z,13.5
2017-12-31T09:05:09.764Z,13.5
2017-12-31T09:06:11.302Z,13.6
2017-12-31T09:07:12.747Z,13.5
2017-12-31T09:08:14.338Z,13.6
2017-12-31T09:09:15.815Z,13.5
2017-12-31T09:10:17.263Z,13.6
2017-12-31T09:11:18.755Z,13.6
2017-12-31T09:12:20.285Z,13.7
2017-12-31T09:13:21.735Z,13.7
2017-12-31T09:14:23.223Z,13.7
2017-12-31T09:15:24.792Z,13.7
2017-12-31T09:16:26.329Z,13.7
2017-12-31T09:17:28.198Z,13.7
2017-12-31T09:18:29.753Z,13.8
2017-12-31T09:19:31.554Z,13.8
2017-12-31T09:20:32.946Z,13.8
2017-12-31T09:21:34.769Z,13.8
2017-12-31T09:22:36.415Z,13.8
2017-12-31T09:23:38.086Z,13.8
2017-12-31T09:24:39.821Z,13.8
2017-12-31T09:25:41.597Z,13.8
2017-12-31T09:26:43.360Z,13.8
2017-12-31T09:27:45.148Z,13.7
2017-12-31T09:28:46.644Z,13.7
2017-12-31T09:29:48.438Z,13.7
2017-12-31T09:30:49.892Z,13.8
2017-12-31T09:31:51.356Z,13.8
2017-12-31T09:32:52.865Z,13.9
2017-12-31T09:33:54.456Z,13.8
2017-12-31T09:34:56.017Z,13.8
2017-12-31T09:35:57.595Z,13.8
2017-12-31T09:36:59.040Z,13.7
2017-12-31T09:38:00.511Z,13.8
2017-12-31T09:39:01.994Z,13.8
2017-12-31T09:40:03.770Z,13.8
2017-12-31T09:41:05.247Z,13.8
2017-12-31T09:42:06.785Z,13.7
2017-12-31T09:43:08.278Z,13.7
2017-12-31T09:44:09.758Z,13.7
2017-12-31T09:45:11.336Z,13.7
2017-12-31T09:46:12.798Z,13.5
2017-12-31T09:47:14.326Z,13.5
2017-12-31T09:48:15.788Z,13.5
2017-12-31T09:49:17.270Z,13.4
2017-12-31T09:50:18.894Z,13.4
2017-12-31T09:51:20.407Z,13.6
2017-12-31T09:52:21.924Z,13.5
2017-12-31T09:53:23.462Z,13.5
2017-12-31T09:54:25.176Z,13.4
2017-12-31T09:55:26.682Z,13.5
2017-12-31T09:56:28.192Z,13.6
2017-12-31T09:57:29.648Z,13.7
2017-12-31T09:58:31.153Z,13.7
2017-12-31T09:59:32.605Z,13.7
2017-12-31T10:00:34.076Z,13.8
2017-12-31T10:01:35.633Z,13.8
2017-12-31T10:02:37.168Z,13.7
2017-12-31T10:03:39.035Z,13.8
2017-12-31T10:04:40.585Z,13.8
2017-12-31T10:05:42.466Z,13.8
2017-12-31T10:06:44.087Z,13.8
2017-12-31T10:07:45.626Z,13.8
2017-12-31T10:08:47.276Z,13.7
2017-12-31T10:09:48.865Z,13.7
2017-12-31T10:10:50.503Z,13.7
2017-12-31T10:11:52.256Z,13.7
2017-12-31T10:12:53.964Z,13.7
2017-12-31T10:13:55.767Z,13.7
2017-12-31T10:14:57.518Z,13.7
2017-12-31T10:15:59.224Z,13.8
2017-12-31T10:17:00.776Z,13.8
2017-12-31T10:18:02.483Z,13.7
2017-12-31T10:19:04.022Z,13.7
2017-12-31T10:20:05.540Z,13.7
2017-12-31T10:21:07.049Z,13.7
2017-12-31T10:22:08.538Z,13.7
2017-12-31T10:23:09.969Z,13.8
2017-12-31T10:24:11.520Z,13.7
2017-12-31T10:25:13.175Z,13.8
2017-12-31T10:26:14.810Z,13.8
2017-12-31T10:27:16.262Z,13.8
2017-12-31T10:28:17.783Z,13.9
2017-12-31T10:29:19.565Z,13.9
2017-12-31T10:30:21.330Z,13.8
2017-12-31T10:31:22.833Z,13.8
2017-12-31T10:32:25.128Z,13.8
2017-12-31T10:33:26.597Z,13.9
2017-12-31T10:34:28.507Z,13.8
2017-12-31T10:35:29.972Z,13.9
2017-12-31T10:36:31.531Z,13.9
2017-12-31T10:37:33.048Z,13.9
2017-12-31T10:38:34.545Z,13.8
2017-12-31T10:39:36.077Z,13.9
2017-12-31T10:40:37.751Z,13.9
2017-12-31T10:41:39.321Z,14.0
2017-12-31T10:42:40.832Z,13.9
2017-12-31T10:43:42.626Z,14.0
2017-12-31T10:44:44.173Z,14.0
2017-12-31T10:45:45.642Z,14.0
2017-12-31T10:46:47.126Z,14.0
2017-12-31T10:47:48.756Z,14.0
2017-12-31T10:48:50.289Z,14.1
2017-12-31T10:49:51.828Z,14.0
2017-12-31T10:50:53.264Z,14.0
2017-12-31T10:51:54.786Z,14.2
2017-12-31T10:52:56.477Z,14.2
2017-12-31T10:53:58.050Z,14.3
2017-12-31T10:54:59.928Z,14.3
2017-12-31T10:56:01.663Z,14.3
2017-12-31T10:57:03.294Z,14.2
2017-12-31T10:58:05.089Z,14.2
2017-12-31T10:59:06.618Z,14.2
2017-12-31T11:00:08.132Z,14.2
2017-12-31T11:01:09.664Z,14.3
2017-12-31T11:02:11.113Z,14.3
2017-12-31T11:03:12.775Z,14.4
2017-12-31T11:04:14.531Z,14.8
2017-12-31T11:05:16.055Z,14.8
2017-12-31T11:06:17.510Z,14.7
2017-12-31T11:07:19.101Z,15.3
2017-12-31T11:08:20.842Z,15.5
2017-12-31T11:09:22.293Z,15.3
2017-12-31T11:10:23.801Z,15.5
2017-12-31T11:11:25.498Z,15.3
2017-12-31T11:12:27.222Z,15.7
2017-12-31T11:13:29.084Z,15.3
2017-12-31T11:14:30.919Z,15.5
2017-12-31T11:15:32.723Z,15.9
2017-12-31T11:16:34.522Z,15.8
2017-12-31T11:17:36.099Z,15.4
2017-12-31T11:18:37.766Z,15.2
2017-12-31T11:19:39.334Z,15.1
2017-12-31T11:20:40.822Z,15.1
2017-12-31T11:21:42.593Z,15.1
2017-12-31T11:22:44.110Z,14.8
2017-12-31T11:23:45.761Z,14.8
2017-12-31T11:24:47.549Z,14.8
2017-12-31T11:25:49.209Z,14.8
2017-12-31T11:26:50.659Z,14.9
2017-12-31T11:27:52.157Z,14.9
2017-12-31T11:28:53.880Z,14.9
2017-12-31T11:29:55.331Z,14.9
2017-12-31T11:30:56.951Z,15.0
2017-12-31T11:31:58.845Z,14.9
2017-12-31T11:33:00.638Z,14.9
2017-12-31T11:34:02.198Z,14.8
2017-12-31T11:35:03.882Z,14.8
2017-12-31T11:36:05.365Z,14.7
2017-12-31T11:37:07.013Z,14.7
2017-12-31T11:38:08.683Z,14.8
2017-12-31T11:39:10.409Z,14.8
2017-12-31T11:40:12.232Z,14.7
2017-12-31T11:41:14.188Z,14.8
2017-12-31T11:42:15.960Z,14.9
2017-12-31T11:43:17.428Z,15.1
2017-12-31T11:44:19.162Z,15.2
2017-12-31T11:45:20.945Z,15.1
2017-12-31T11:46:22.414Z,15.1
2017-12-31T11:47:23.964Z,15.1
2017-12-31T11:48:25.428Z,15.2
2017-12-31T11:49:27.205Z,15.0
2017-12-31T11:50:28.681Z,14.9
2017-12-31T11:51:30.436Z,15.1
2017-12-31T11:52:31.953Z,15.1
2017-12-31T11:53:33.727Z,15.2
2017-12-31T11:54:35.502Z,15.3
2017-12-31T11:55:37.055Z,15.5
2017-12-31T11:56:39.220Z,15.2
2017-12-31T11:57:40.850Z,15.2
2017-12-31T11:58:42.379Z,15.1
2017-12-31T11:59:44.168Z,15.2
2017-12-31T12:00:45.666Z,15.3
2017-12-31T12:01:47.464Z,15.3
2017-12-31T12:02:49.190Z,15.2
2017-12-31T12:03:50.917Z,15.3
2017-12-31T12:04:52.435Z,15.3
2017-12-31T12:05:53.945Z,15.5
2017-12-31T12:06:55.723Z,15.5
2017-12-31T12:07:57.260Z,15.3
2017-12-31T12:08:58.811Z,15.3
2017-12-31T12:10:00.732Z,15.3
2017-12-31T12:11:02.474Z,15.3
2017-12-31T12:12:04.085Z,15.3
2017-12-31T12:13:05.880Z,15.4
2017-12-31T12:14:07.385Z,15.4
2017-12-31T12:15:08.890Z,15.3
2017-12-31T12:16:10.408Z,15.3
2017-12-31T12:17:12.143Z,15.4
2017-12-31T12:18:13.590Z,15.3
2017-12-31T12:19:15.088Z,15.3
2017-12-31T12:20:16.924Z,15.2
2017-12-31T12:21:18.390Z,15.2
2017-12-31T12:22:20.273Z,15.2
2017-12-31T12:23:21.894Z,15.1
2017-12-31T12:24:23.463Z,15.1
2017-12-31T12:25:24.973Z,15.2
2017-12-31T12:26:26.721Z,15.2
2017-12-31T12:27:28.570Z,15.1
2017-12-31T12:28:30.459Z,15.1
2017-12-31T12:29:32.232Z,15.0
2017-12-31T12:30:33.765Z,15.1
2017-12-31T12:31:35.356Z,15.2
2017-12-31T12:32:36.822Z,15.1
2017-12-31T12:33:38.680Z,15.2
2017-12-31T12:34:40.232Z,15.3
2017-12-31T12:35:41.725Z,15.3
2017-12-31T12:36:43.214Z,15.5
2017-12-31T12:37:44.758Z,15.5
2017-12-31T12:38:46.479Z,15.6
2017-12-31T12:39:49.014Z,15.7
2017-12-31T12:40:50.849Z,15.6
2017-12-31T12:41:52.435Z,15.5
2017-12-31T12:42:54.186Z,15.4
2017-12-31T12:43:55.998Z,15.3
2017-12-31T12:44:57.864Z,15.2
2017-12-31T12:45:59.532Z,15.3
2017-12-31T12:47:01.179Z,15.2
2017-12-31T12:48:02.641Z,15.1
2017-12-31T12:49:04.331Z,15.2
2017-12-31T12:50:05.907Z,15.2
2017-12-31T12:51:07.701Z,15.2
2017-12-31T12:52:09.546Z,15.2
2017-12-31T12:53:11.030Z,15.3
2017-12-31T12:54:12.646Z,15.2
2017-12-31T12:55:15.128Z,15.2
2017-12-31T12:56:16.966Z,15.3
2017-12-31T12:57:18.454Z,15.1
2017-12-31T12:58:20.385Z,15.1
2017-12-31T12:59:22.269Z,15.2
2017-12-31T13:00:23.997Z,15.1
2017-12-31T13:01:25.847Z,15.2
2017-12-31T13:02:27.333Z,15.2
2017-12-31T13:03:29.242Z,15.1
2017-12-31T13:04:30.959Z,15.2
2017-12-31T13:05:32.445Z,15.1
2017-12-31T13:06:34.221Z,15.1
2017-12-31T13:07:35.719Z,15.1
2017-12-31T13:08:37.420Z,15.1
2017-12-31T13:09:39.208Z,15.1
2017-12-31T13:10:40.763Z,15.1
2017-12-31T13:11:42.646Z,15.1
2017-12-31T13:12:44.405Z,15.1
2017-12-31T13:13:46.146Z,15.1
2017-12-31T13:14:48.224Z,15.0
2017-12-31T13:15:50.891Z,15.2
2017-12-31T13:16:52.534Z,15.1
2017-12-31T13:17:54.428Z,15.1
2017-12-31T13:18:56.024Z,15.1
2017-12-31T13:19:57.820Z,15.2
2017-12-31T13:20:59.621Z,15.1
2017-12-31T13:22:01.493Z,15.1
2017-12-31T13:23:03.210Z,15.2
2017-12-31T13:24:04.959Z,15.1
2017-12-31T13:25:06.989Z,15.2
2017-12-31T13:26:08.889Z,15.2
2017-12-31T13:27:10.356Z,15.2
2017-12-31T13:28:11.855Z,15.2
2017-12-31T13:29:13.510Z,15.3
2017-12-31T13:30:15.024Z,15.2
2017-12-31T13:31:16.707Z,15.2
2017-12-31T13:32:18.529Z,15.1
2017-12-31T13:33:20.028Z,15.2
2017-12-31T13:34:21.574Z,15.1
2017-12-31T13:35:23.366Z,15.2
2017-12-31T13:36:25.132Z,15.0
2017-12-31T13:37:26.830Z,15.2
2017-12-31T13:38:28.582Z,15.2
2017-12-31T13:39:30.315Z,15.1
2017-12-31T13:40:31.850Z,15.1
2017-12-31T13:41:33.408Z,15.1
2017-12-31T13:42:35.193Z,15.1
2017-12-31T13:43:36.678Z,15.1
2017-12-31T13:44:38.244Z,15.0
2017-12-31T13:45:39.783Z,15.0
2017-12-31T13:46:41.524Z,15.1
2017-12-31T13:47:43.364Z,15.1
2017-12-31T13:48:44.949Z,15.0
2017-12-31T13:49:47.259Z,15.1
2017-12-31T13:50:48.773Z,14.9
2017-12-31T13:51:50.633Z,14.9
2017-12-31T13:52:52.951Z,14.9
2017-12-31T13:53:54.434Z,14.9
2017-12-31T13:54:56.330Z,14.9
2017-12-31T13:55:58.148Z,14.9
2017-12-31T13:57:00.131Z,14.9
2017-12-31T13:58:01.940Z,14.8
2017-12-31T13:59:03.783Z,14.9
2017-12-31T14:00:05.533Z,14.9
2017-12-31T14:01:07.321Z,14.9
2017-12-31T14:02:08.871Z,14.9
2017-12-31T14:03:11.160Z,14.9
2017-12-31T14:04:12.960Z,15.0
2017-12-31T14:05:14.627Z,14.9
2017-12-31T14:06:16.967Z,14.8
2017-12-31T14:07:18.988Z,14.9
2017-12-31T14:08:20.817Z,14.9
2017-12-31T14:09:22.636Z,14.8
2017-12-31T14:10:24.129Z,14.8
2017-12-31T14:11:25.652Z,14.8
2017-12-31T14:12:27.432Z,14.8
2017-12-31T14:13:29.261Z,14.8
2017-12-31T14:14:31.118Z,14.8
2017-12-31T14:15:32.865Z,14.7
2017-12-31T14:16:34.523Z,14.8
2017-12-31T14:17:36.364Z,14.8
2017-12-31T14:18:38.049Z,14.8
2017-12-31T14:19:39.934Z,14.8
2017-12-31T14:20:41.666Z,14.8
2017-12-31T14:21:43.177Z,14.8
2017-12-31T14:22:45.049Z,14.8
2017-12-31T14:23:46.767Z,14.8
2017-12-31T14:24:48.153Z,14.8
2017-12-31T14:25:50.208Z,14.8
2017-12-31T14:26:51.876Z,14.8
2017-12-31T14:27:53.387Z,14.8
2017-12-31T14:28:55.192Z,14.7
2017-12-31T14:29:57.001Z,14.8
2017-12-31T14:30:58.464Z,14.8
2017-12-31T14:31:59.966Z,14.8
2017-12-31T14:33:01.459Z,14.8
2017-12-31T14:34:02.996Z,14.8
2017-12-31T14:35:04.495Z,14.8
2017-12-31T14:36:06.075Z,14.8
2017-12-31T14:37:07.779Z,14.8
2017-12-31T14:38:09.312Z,14.8
2017-12-31T14:39:11.122Z,14.8
2017-12-31T14:40:12.619Z,14.8
2017-12-31T14:41:14.080Z,14.7
2017-12-31T14:42:15.675Z,14.8
2017-12-31T14:43:17.461Z,14.8
2017-12-31T14:44:19.253Z,14.8
2017-12-31T14:45:20.831Z,14.7
2017-12-31T14:46:22.272Z,14.8
2017-12-31T14:47:24.060Z,14.8
2017-12-31T14:48:25.764Z,14.8
2017-12-31T14:49:27.615Z,14.9
2017-12-31T14:50:29.216Z,14.8
2017-12-31T14:51:30.669Z,14.8
2017-12-31T14:52:32.439Z,14.8
2017-12-31T14:53:34.286Z,14.8
2017-12-31T14:54:35.925Z,14.9
2017-12-31T14:55:37.716Z,14.8
2017-12-31T14:56:39.240Z,14.8
2017-12-31T14:57:41.088Z,14.9
2017-12-31T14:58:42.887Z,14.8
2017-12-31T14:59:44.657Z,14.8
2017-12-31T15:00:46.490Z,14.8
2017-12-31T15:01:48.274Z,14.8
2017-12-31T15:02:50.060Z,14.8
2017-12-31T15:03:51.865Z,14.9
2017-12-31T15:04:53.606Z,14.9
2017-12-31T15:05:55.498Z,14.8
2017-12-31T15:06:57.215Z,14.8
2017-12-31T15:07:58.826Z,14.8
2017-12-31T15:09:00.647Z,14.8
2017-12-31T15:10:02.110Z,14.8
2017-12-31T15:11:03.656Z,14.8
2017-12-31T15:12:05.422Z,14.8
2017-12-31T15:13:06.857Z,14.8
2017-12-31T15:14:08.366Z,14.8
2017-12-31T15:15:10.117Z,14.8
2017-12-31T15:16:11.918Z,14.9
2017-12-31T15:17:13.739Z,14.8
2017-12-31T15:18:15.437Z,14.8
2017-12-31T15:19:17.057Z,14.8
2017-12-31T15:20:18.531Z,14.7
2017-12-31T15:21:20.141Z,14.8
2017-12-31T15:22:21.962Z,14.8
2017-12-31T15:23:23.804Z,14.8
2017-12-31T15:24:25.249Z,14.7
2017-12-31T15:25:26.697Z,14.8
2017-12-31T15:26:28.391Z,14.7
2017-12-31T15:27:29.875Z,14.7
2017-12-31T15:28:31.623Z,14.7
2017-12-31T15:29:33.278Z,14.7
2017-12-31T15:30:35.054Z,14.7
2017-12-31T15:31:36.765Z,14.7
2017-12-31T15:32:38.570Z,14.8
2017-12-31T15:33:40.372Z,14.8
2017-12-31T15:34:41.828Z,14.8
2017-12-31T15:35:43.460Z,14.8
2017-12-31T15:36:45.245Z,14.8
2017-12-31T15:37:46.712Z,14.8
2017-12-31T15:38:48.428Z,14.8
2017-12-31T15:39:50.159Z,14.7
2017-12-31T15:40:51.839Z,14.9
2017-12-31T15:41:53.586Z,14.7
2017-12-31T15:42:55.475Z,14.8
2017-12-31T15:43:57.465Z,14.8
2017-12-31T15:44:58.876Z,14.9
2017-12-31T15:46:00.589Z,14.8
2017-12-31T15:47:02.356Z,14.8
2017-12-31T15:48:04.102Z,14.8
2017-12-31T15:49:05.810Z,14.8
2017-12-31T15:50:07.498Z,14.8
2017-12-31T15:51:08.998Z,14.8
2017-12-31T15:52:10.795Z,14.8
2017-12-31T15:53:12.237Z,14.7
2017-12-31T15:54:13.729Z,14.8
2017-12-31T15:55:15.301Z,14.8
2017-12-31T15:56:16.797Z,14.8
2017-12-31T15:57:18.510Z,14.7
2017-12-31T15:58:20.274Z,14.7
2017-12-31T15:59:22.332Z,14.7
2017-12-31T16:00:24.552Z,14.7
2017-12-31T16:01:27.763Z,14.7
2017-12-31T16:02:29.617Z,14.7
2017-12-31T16:03:32.966Z,14.7
2017-12-31T16:04:34.828Z,14.5
2017-12-31T16:05:36.501Z,14.5
2017-12-31T16:06:38.424Z,14.5
2017-12-31T16:07:40.163Z,14.4
2017-12-31T16:08:41.930Z,14.2
2017-12-31T16:09:43.774Z,14.2
2017-12-31T16:10:45.572Z,14.2
2017-12-31T16:11:47.266Z,14.2
2017-12-31T16:12:48.829Z,14.2
2017-12-31T16:13:50.515Z,14.1
2017-12-31T16:14:52.222Z,14.0
2017-12-31T16:15:53.951Z,14.0
2017-12-31T16:16:55.670Z,13.9
2017-12-31T16:17:57.168Z,13.9
2017-12-31T16:18:58.927Z,13.9
2017-12-31T16:20:00.644Z,13.8
2017-12-31T16:21:02.190Z,13.7
2017-12-31T16:22:03.885Z,13.7
2017-12-31T16:23:05.321Z,13.6
2017-12-31T16:24:06.963Z,13.6
2017-12-31T16:25:08.357Z,13.5
2017-12-31T16:26:09.889Z,13.4
2017-12-31T16:27:11.322Z,13.4
2017-12-31T16:28:12.805Z,13.4
2017-12-31T16:29:14.266Z,13.3
2017-12-31T16:30:15.692Z,13.3
2017-12-31T16:31:17.134Z,13.3
2017-12-31T16:32:18.928Z,13.3
2017-12-31T16:33:20.751Z,13.2
2017-12-31T16:34:22.241Z,13.2
2017-12-31T16:35:23.676Z,13.1
2017-12-31T16:36:25.083Z,13.0
2017-12-31T16:37:26.523Z,13.1
2017-12-31T16:38:27.989Z,13.0
2017-12-31T16:39:29.465Z,13.0
2017-12-31T16:40:30.865Z,12.9
2017-12-31T16:41:32.311Z,13.0
2017-12-31T16:42:33.750Z,12.9
2017-12-31T16:43:35.287Z,12.8
2017-12-31T16:44:36.668Z,12.9
2017-12-31T16:45:38.124Z,12.8
2017-12-31T16:46:39.595Z,12.8
2017-12-31T16:47:41.257Z,12.8
2017-12-31T16:48:42.675Z,12.8
2017-12-31T16:49:44.173Z,12.7
2017-12-31T16:50:45.602Z,12.7
2017-12-31T16:51:47.262Z,12.7
2017-12-31T16:52:48.684Z,12.7
2017-12-31T16:53:50.122Z,12.7
2017-12-31T16:54:51.554Z,12.7
2017-12-31T16:55:53.237Z,12.7
2017-12-31T16:56:54.730Z,12.8
2017-12-31T16:57:56.221Z,12.7
2017-12-31T16:58:57.848Z,12.7
2017-12-31T16:59:59.344Z,12.7
2017-12-31T17:01:00.963Z,12.7
2017-12-31T17:02:02.646Z,12.7
2017-12-31T17:03:04.118Z,12.8
2017-12-31T17:04:05.853Z,12.7
2017-12-31T17:05:07.289Z,12.8
2017-12-31T17:06:08.710Z,12.7
2017-12-31T17:07:10.194Z,12.8
2017-12-31T17:08:11.689Z,12.7
2017-12-31T17:09:13.127Z,12.7
2017-12-31T17:10:14.573Z,12.7
2017-12-31T17:11:16.032Z,12.7
2017-12-31T17:12:17.505Z,12.7
2017-12-31T17:13:18.964Z,12.7
2017-12-31T17:14:20.400Z,12.8
2017-12-31T17:15:21.869Z,12.9
2017-12-31T17:16:23.319Z,12.8
2017-12-31T17:17:24.782Z,12.8
2017-12-31T17:18:26.247Z,12.8
2017-12-31T17:19:27.692Z,12.8
2017-12-31T17:20:29.158Z,12.8
2017-12-31T17:21:30.593Z,12.7
2017-12-31T17:22:32.061Z,12.8
2017-12-31T17:23:33.515Z,12.9
2017-12-31T17:24:35.014Z,12.7
2017-12-31T17:25:36.470Z,12.9
2017-12-31T17:26:37.889Z,12.8
2017-12-31T17:27:39.326Z,12.8
2017-12-31T17:28:40.836Z,12.9
2017-12-31T17:29:42.299Z,12.8
2017-12-31T17:30:43.810Z,12.9
2017-12-31T17:31:45.312Z,12.9
2017-12-31T17:32:46.833Z,12.8
2017-12-31T17:33:48.271Z,12.9
2017-12-31T17:34:49.953Z,12.9
2017-12-31T17:35:51.662Z,12.9
2017-12-31T17:36:53.745Z,12.9
2017-12-31T17:37:55.205Z,12.9
2017-12-31T17:38:56.676Z,12.9
2017-12-31T17:39:58.137Z,12.9
2017-12-31T17:40:59.803Z,12.9
2017-12-31T17:42:01.307Z,12.9
2017-12-31T17:43:02.798Z,12.9
2017-12-31T17:44:04.236Z,12.9
2017-12-31T17:45:05.726Z,12.9
2017-12-31T17:46:07.519Z,12.9
2017-12-31T17:47:08.963Z,12.8
2017-12-31T17:48:10.706Z,12.9
2017-12-31T17:49:12.244Z,12.8
2017-12-31T17:50:13.727Z,13.0
2017-12-31T17:51:15.438Z,12.9
2017-12-31T17:52:17.034Z,12.9
2017-12-31T17:53:18.512Z,12.9
2017-12-31T17:54:19.997Z,12.8
2017-12-31T17:55:21.441Z,13.0
2017-12-31T17:56:23.053Z,12.9
2017-12-31T17:57:24.702Z,12.9
2017-12-31T17:58:26.134Z,13.0
2017-12-31T17:59:27.536Z,13.0
2017-12-31T18:00:29.038Z,13.0
2017-12-31T18:01:30.962Z,13.0
2017-12-31T18:02:33.000Z,12.9
2017-12-31T18:03:34.837Z,12.9
2017-12-31T18:04:36.520Z,12.9
2017-12-31T18:05:38.231Z,13.0
2017-12-31T18:06:39.940Z,12.9
2017-12-31T18:07:41.524Z,13.0
2017-12-31T18:08:43.087Z,13.0
2017-12-31T18:09:44.555Z,13.0
2017-12-31T18:10:46.275Z,12.8
2017-12-31T18:11:47.955Z,13.0
2017-12-31T18:12:49.621Z,12.9
2017-12-31T18:13:51.260Z,13.0
2017-12-31T18:14:52.705Z,12.9
2017-12-31T18:15:54.298Z,13.0
2017-12-31T18:16:55.844Z,12.8
2017-12-31T18:17:57.287Z,12.8
2017-12-31T18:18:58.797Z,12.7
2017-12-31T18:20:00.383Z,12.7
2017-12-31T18:21:01.931Z,12.8
2017-12-31T18:22:03.556Z,12.8
2017-12-31T18:23:05.095Z,12.7
2017-12-31T18:24:06.582Z,12.7
2017-12-31T18:25:08.354Z,12.7
2017-12-31T18:26:09.982Z,12.7
2017-12-31T18:27:11.480Z,12.7
2017-12-31T18:28:13.094Z,12.8
2017-12-31T18:29:14.573Z,12.7
2017-12-31T18:30:16.104Z,12.7
2017-12-31T18:31:17.700Z,12.8
2017-12-31T18:32:19.394Z,12.7
2017-12-31T18:33:21.093Z,12.7
2017-12-31T18:34:22.743Z,12.7
2017-12-31T18:35:24.173Z,12.6
2017-12-31T18:36:25.699Z,12.7
2017-12-31T18:37:27.154Z,12.7
2017-12-31T18:38:28.599Z,12.6
2017-12-31T18:39:30.408Z,12.6
2017-12-31T18:40:32.162Z,12.5
2017-12-31T18:41:33.838Z,12.6
2017-12-31T18:42:35.416Z,12.6
2017-12-31T18:43:36.976Z,12.6
2017-12-31T18:44:38.596Z,12.5
2017-12-31T18:45:40.391Z,12.6
2017-12-31T18:46:42.020Z,12.6
2017-12-31T18:47:43.465Z,12.6
2017-12-31T18:48:45.197Z,12.6